N026AP KSFB-KDAB
Flight info
| Callsign | N026AP |
|---|---|
| Flight time | 0h 11m |
| Altitude | 3000 |
| Route | PIXEE |
| Aircraft | DA62/L-SDFGRY/C |
Departure
| Time | 2026-05-01 15:20 |
|---|---|
| Airport | Orlando Sanford International Airport (KSFB) |
Arrival
| Time | 2026-05-01 15:32 |
|---|---|
| Airport | Daytona Beach International Airport (KDAB) |
| Time | Latitude | Longitude | Altitude | Speed | Heading |
|---|---|---|---|---|---|
| 2026-05-01 15:17 | 28.77829 | -81.24974 | 55 ft | 0 kts | 178° |
| 2026-05-01 15:18 | 28.77819 | -81.24949 | 52 ft | 5 kts | 7° |
| 2026-05-01 15:18 | 28.77831 | -81.24950 | 56 ft | 0 kts | 350° |
| 2026-05-01 15:19 | 28.77890 | -81.24883 | 55 ft | 11 kts | 129° |
| 2026-05-01 15:19 | 28.77845 | -81.24645 | 58 ft | 38 kts | 90° |
| 2026-05-01 15:19 | 28.77850 | -81.24111 | 59 ft | 91 kts | 91° |
| 2026-05-01 15:20 | 28.77831 | -81.22481 | 475 ft | 109 kts | 86° |
| 2026-05-01 15:20 | 28.77907 | -81.21602 | 754 ft | 118 kts | 82° |
| 2026-05-01 15:20 | 28.78114 | -81.20677 | 1044 ft | 125 kts | 74° |
| 2026-05-01 15:21 | 28.78590 | -81.19863 | 1299 ft | 131 kts | 31° |
| 2026-05-01 15:21 | 28.79408 | -81.19380 | 1554 ft | 133 kts | 27° |
| 2026-05-01 15:21 | 28.80236 | -81.18902 | 1835 ft | 133 kts | 26° |
| 2026-05-01 15:21 | 28.81091 | -81.18493 | 2100 ft | 134 kts | 16° |
| 2026-05-01 15:22 | 28.82876 | -81.17854 | 2780 ft | 135 kts | 16° |
| 2026-05-01 15:22 | 28.83805 | -81.17514 | 2975 ft | 149 kts | 18° |
| 2026-05-01 15:22 | 28.84842 | -81.17106 | 2984 ft | 165 kts | 18° |
| 2026-05-01 15:23 | 28.85974 | -81.16672 | 2984 ft | 177 kts | 17° |
| 2026-05-01 15:23 | 28.87164 | -81.16225 | 2990 ft | 184 kts | 18° |
| 2026-05-01 15:23 | 28.88387 | -81.15754 | 2994 ft | 187 kts | 18° |
| 2026-05-01 15:23 | 28.89621 | -81.15274 | 2986 ft | 187 kts | 18° |
| 2026-05-01 15:24 | 28.90858 | -81.14805 | 2991 ft | 187 kts | 18° |
| 2026-05-01 15:24 | 28.92077 | -81.14339 | 2994 ft | 187 kts | 18° |
| 2026-05-01 15:24 | 28.93333 | -81.13856 | 2996 ft | 188 kts | 18° |
| 2026-05-01 15:24 | 28.94573 | -81.13380 | 2995 ft | 188 kts | 18° |
| 2026-05-01 15:25 | 28.95799 | -81.12910 | 2996 ft | 188 kts | 18° |
| 2026-05-01 15:25 | 28.97036 | -81.12435 | 2999 ft | 187 kts | 17° |
| 2026-05-01 15:25 | 28.98275 | -81.11962 | 2997 ft | 188 kts | 18° |
| 2026-05-01 15:25 | 28.99514 | -81.11485 | 2976 ft | 188 kts | 18° |
| 2026-05-01 15:26 | 29.00757 | -81.11010 | 2969 ft | 188 kts | 12° |
| 2026-05-01 15:26 | 29.02018 | -81.11160 | 2980 ft | 183 kts | 333° |
| 2026-05-01 15:26 | 29.03087 | -81.11936 | 3004 ft | 182 kts | 324° |
| 2026-05-01 15:26 | 29.04121 | -81.12769 | 3002 ft | 182 kts | 323° |
| 2026-05-01 15:27 | 29.05162 | -81.13607 | 3007 ft | 183 kts | 322° |
| 2026-05-01 15:27 | 29.06182 | -81.14471 | 3003 ft | 182 kts | 320° |
| 2026-05-01 15:27 | 29.07209 | -81.15329 | 2947 ft | 180 kts | 323° |
| 2026-05-01 15:28 | 29.09099 | -81.16475 | 2721 ft | 134 kts | 357° |
| 2026-05-01 15:28 | 29.09962 | -81.16469 | 2593 ft | 115 kts | 359° |
| 2026-05-01 15:28 | 29.10722 | -81.16468 | 2445 ft | 107 kts | 358° |
| 2026-05-01 15:29 | 29.11938 | -81.15821 | 2150 ft | 119 kts | 63° |
| 2026-05-01 15:29 | 29.12379 | -81.14923 | 2019 ft | 139 kts | 57° |
| 2026-05-01 15:29 | 29.13783 | -81.13498 | 1576 ft | 123 kts | 37° |
| 2026-05-01 15:30 | 29.15071 | -81.12249 | 1294 ft | 124 kts | 46° |
| 2026-05-01 15:31 | 29.16713 | -81.09172 | 412 ft | 101 kts | 67° |
| 2026-05-01 15:31 | 29.17245 | -81.07798 | 98 ft | 84 kts | 62° |
| 2026-05-01 15:32 | 29.17579 | -81.07027 | 33 ft | 30 kts | 65° |
| 2026-05-01 15:32 | 29.17704 | -81.06968 | 33 ft | 9 kts | 331° |
| 2026-05-01 15:33 | 29.17851 | -81.06703 | 33 ft | 21 kts | 65° |
| 2026-05-01 15:34 | 29.18047 | -81.06223 | 38 ft | 31 kts | 69° |